Time;durP1;ratioP1;P1;durP2;ratioP2;P2;SDS_P1;SDS_P2;PMS_P1;PMS_P2;Temp;Humidity;BMP_temperature;BMP_pressure;BME280_temperature;BME280_humidity;BME280_pressure;Samples;Min_cycle;Max_cycle;Signal;HPM_P1;HPM_P2
2022/11/05 00:10:31;;;;;;;74.90;27.57;;;;;;;;;;4964473;28;21316;-64
2022/11/05 00:19:21;;;;;;;74.83;28.10;;;;;;;;;;4975357;28;20041;-64
2022/11/05 00:25:15;;;;;;;86.57;29.03;;;;;;;;;;4967607;28;20083;-63
2022/11/05 00:27:59;;;;;;;84.43;29.98;;;;;;;;;;4967330;28;20049;-63
2022/11/05 00:30:43;;;;;;;94.30;31.07;;;;;;;;;;4966871;28;20037;-63
2022/11/05 00:33:27;;;;;;;89.37;31.73;;;;;;;;;;4966708;28;20109;-64
2022/11/05 00:36:10;;;;;;;98.63;32.67;;;;;;;;;;4971690;28;20425;-64
2022/11/05 00:38:54;;;;;;;94.33;33.27;;;;;;;;;;4975521;28;20039;-64
2022/11/05 00:41:38;;;;;;;91.53;32.20;;;;;;;;;;4979120;28;20026;-64
2022/11/05 00:50:27;;;;;;;93.13;33.47;;;;;;;;;;4976750;28;20052;-64
2022/11/05 00:53:11;;;;;;;91.67;33.63;;;;;;;;;;4980345;28;20156;-64
2022/11/05 00:55:55;;;;;;;95.80;33.40;;;;;;;;;;4967670;28;20035;-64
2022/11/05 00:58:39;;;;;;;106.10;35.37;;;;;;;;;;4967489;28;20030;-64
2022/11/05 01:01:23;;;;;;;105.00;35.00;;;;;;;;;;4965591;28;20118;-64
2022/11/05 01:04:06;;;;;;;101.13;34.63;;;;;;;;;;4976282;28;20066;-64
2022/11/05 01:06:50;;;;;;;107.47;35.27;;;;;;;;;;4984548;28;20034;-64
2022/11/05 01:09:34;;;;;;;103.53;36.03;;;;;;;;;;4964824;28;20026;-64
2022/11/05 01:12:18;;;;;;;104.27;36.87;;;;;;;;;;4988306;28;20050;-64
2022/11/05 01:15:02;;;;;;;122.07;38.27;;;;;;;;;;4982374;28;20023;-64
2022/11/05 01:17:45;;;;;;;106.03;36.50;;;;;;;;;;4965359;28;20084;-64
2022/11/05 01:20:29;;;;;;;101.57;34.77;;;;;;;;;;4974164;28;20047;-64
2022/11/05 01:23:13;;;;;;;98.07;36.73;;;;;;;;;;4970866;28;20034;-64
2022/11/05 01:25:56;;;;;;;110.03;37.00;;;;;;;;;;4969089;28;20042;-64
2022/11/05 01:28:40;;;;;;;104.67;37.17;;;;;;;;;;4970774;28;20027;-64
2022/11/05 01:31:24;;;;;;;110.63;39.07;;;;;;;;;;4967498;28;20030;-64
2022/11/05 01:34:08;;;;;;;112.93;37.37;;;;;;;;;;4969467;28;20437;-64
2022/11/05 01:36:51;;;;;;;112.90;37.03;;;;;;;;;;4970547;28;20039;-64
2022/11/05 01:39:35;;;;;;;104.73;34.83;;;;;;;;;;4969879;28;20030;-64
2022/11/05 01:42:19;;;;;;;102.00;36.13;;;;;;;;;;4969238;28;20027;-64
2022/11/05 01:45:03;;;;;;;107.70;35.70;;;;;;;;;;4968417;28;20019;-64
2022/11/05 01:47:47;;;;;;;109.47;35.00;;;;;;;;;;4972519;28;20026;-64
2022/11/05 01:50:30;;;;;;;117.73;38.37;;;;;;;;;;4974054;28;20031;-64
2022/11/05 01:53:14;;;;;;;114.37;37.73;;;;;;;;;;4970206;28;20035;-64
2022/11/05 01:55:58;;;;;;;111.30;38.37;;;;;;;;;;4978660;28;20482;-64
2022/11/05 01:58:42;;;;;;;106.60;37.13;;;;;;;;;;4967022;28;20023;-64
2022/11/05 02:01:26;;;;;;;109.77;36.67;;;;;;;;;;4985612;28;20031;-64
2022/11/05 02:04:10;;;;;;;97.50;35.47;;;;;;;;;;4991799;28;20100;-64
2022/11/05 02:06:53;;;;;;;106.30;35.83;;;;;;;;;;4986340;28;20478;-64
2022/11/05 02:09:37;;;;;;;106.77;36.70;;;;;;;;;;4980181;28;20439;-64
2022/11/05 02:12:21;;;;;;;114.47;38.37;;;;;;;;;;4972370;28;20038;-64
2022/11/05 02:15:05;;;;;;;119.73;38.37;;;;;;;;;;4973281;28;20485;-64
2022/11/05 02:17:50;;;;;;;115.67;38.93;;;;;;;;;;4965656;28;20122;-64
2022/11/05 02:20:34;;;;;;;128.90;40.50;;;;;;;;;;4993502;28;20497;-64
2022/11/05 02:23:18;;;;;;;119.07;40.20;;;;;;;;;;4967967;28;20076;-64
2022/11/05 02:26:01;;;;;;;119.23;38.80;;;;;;;;;;4966804;28;20537;-64
2022/11/05 02:28:45;;;;;;;115.13;38.50;;;;;;;;;;4967850;28;20046;-64
2022/11/05 02:31:29;;;;;;;127.17;38.80;;;;;;;;;;4962437;28;20050;-64
2022/11/05 02:34:13;;;;;;;117.63;40.10;;;;;;;;;;4972484;28;20029;-64
2022/11/05 02:36:57;;;;;;;121.30;40.07;;;;;;;;;;4972481;28;20029;-64
2022/11/05 02:39:40;;;;;;;122.20;40.57;;;;;;;;;;4970188;28;20383;-64
2022/11/05 02:42:24;;;;;;;118.70;39.67;;;;;;;;;;4966485;28;20023;-64
2022/11/05 02:45:08;;;;;;;122.53;38.93;;;;;;;;;;4968704;28;20014;-64
2022/11/05 02:47:52;;;;;;;118.20;37.60;;;;;;;;;;4988191;28;20296;-64
2022/11/05 02:50:35;;;;;;;106.50;37.50;;;;;;;;;;4981900;28;20043;-64
2022/11/05 02:53:19;;;;;;;134.83;41.30;;;;;;;;;;4972251;28;20027;-64
2022/11/05 02:56:03;;;;;;;126.20;41.53;;;;;;;;;;4972816;28;20396;-64
2022/11/05 02:58:47;;;;;;;126.10;41.53;;;;;;;;;;4966636;28;20524;-64
2022/11/05 03:01:31;;;;;;;125.50;40.07;;;;;;;;;;4968065;28;20387;-64
2022/11/05 03:04:14;;;;;;;116.67;41.00;;;;;;;;;;4978384;28;20015;-64
2022/11/05 03:06:58;;;;;;;129.13;41.23;;;;;;;;;;4968307;28;20027;-64
2022/11/05 03:09:42;;;;;;;126.97;41.40;;;;;;;;;;4962082;28;20088;-64
2022/11/05 03:12:26;;;;;;;126.97;41.43;;;;;;;;;;4968253;28;20022;-64
2022/11/05 03:15:10;;;;;;;127.60;42.70;;;;;;;;;;4966180;28;20402;-64
2022/11/05 03:17:53;;;;;;;138.37;43.20;;;;;;;;;;4967663;28;20019;-64
2022/11/05 03:20:37;;;;;;;130.47;43.70;;;;;;;;;;4968301;28;20433;-64
2022/11/05 03:23:21;;;;;;;128.10;42.60;;;;;;;;;;4967902;28;20015;-63
2022/11/05 03:26:05;;;;;;;118.17;40.87;;;;;;;;;;4968322;28;20026;-64
2022/11/05 03:28:49;;;;;;;127.70;42.43;;;;;;;;;;4966716;28;20042;-63
2022/11/05 03:31:32;;;;;;;132.93;43.00;;;;;;;;;;4966393;28;20111;-64
2022/11/05 03:34:16;;;;;;;122.60;42.13;;;;;;;;;;4966964;28;20015;-64
2022/11/05 03:37:00;;;;;;;134.07;43.43;;;;;;;;;;4969768;28;20023;-63
2022/11/05 03:39:44;;;;;;;135.90;42.40;;;;;;;;;;4968533;28;20027;-63
2022/11/05 03:42:28;;;;;;;134.57;42.73;;;;;;;;;;4969690;28;20018;-64
2022/11/05 03:45:12;;;;;;;121.10;42.47;;;;;;;;;;4967009;28;20045;-64
2022/11/05 03:47:55;;;;;;;133.70;47.87;;;;;;;;;;4967941;28;20023;-64
2022/11/05 03:50:39;;;;;;;138.83;46.77;;;;;;;;;;4963869;28;20024;-63
2022/11/05 03:53:23;;;;;;;140.37;45.83;;;;;;;;;;4978107;28;20121;-63
2022/11/05 03:56:07;;;;;;;125.97;43.43;;;;;;;;;;4981342;28;20023;-63
2022/11/05 03:58:51;;;;;;;120.77;41.57;;;;;;;;;;4972259;28;20023;-63
2022/11/05 04:01:35;;;;;;;130.43;44.37;;;;;;;;;;4968659;28;20433;-62
2022/11/05 04:04:18;;;;;;;133.53;43.13;;;;;;;;;;4964214;28;20018;-62
2022/11/05 04:13:23;;;;;;;122.00;43.47;;;;;;;;;;4971979;28;20083;-62
2022/11/05 04:24:07;;;;;;;160.33;46.13;;;;;;;;;;4967182;28;20034;-62
2022/11/05 04:25:24;;;;;;;134.97;43.00;;;;;;;;;;4970152;28;20045;-62
2022/11/05 04:28:07;;;;;;;139.67;45.43;;;;;;;;;;4968243;28;20031;-62
2022/11/05 04:30:51;;;;;;;129.97;44.77;;;;;;;;;;4979203;28;20674;-62
2022/11/05 04:33:35;;;;;;;113.70;44.17;;;;;;;;;;5039746;28;20373;-63
2022/11/05 04:36:19;;;;;;;132.80;43.67;;;;;;;;;;5008005;28;20035;-62
2022/11/05 04:39:02;;;;;;;133.43;45.73;;;;;;;;;;4984318;28;20017;-63
2022/11/05 04:41:49;;;;;;;133.07;44.27;;;;;;;;;;4990306;28;20065;-62
2022/11/05 04:44:33;;;;;;;147.90;45.63;;;;;;;;;;4973423;28;20023;-62
2022/11/05 04:47:17;;;;;;;132.83;44.53;;;;;;;;;;4994071;28;20046;-62
2022/11/05 04:50:01;;;;;;;133.90;44.17;;;;;;;;;;5054601;28;20379;-62
2022/11/05 04:52:45;;;;;;;144.40;45.30;;;;;;;;;;4969753;28;20029;-62
2022/11/05 04:55:28;;;;;;;124.60;43.13;;;;;;;;;;4987666;28;20042;-62
2022/11/05 04:58:12;;;;;;;125.47;43.53;;;;;;;;;;4972700;28;20032;-62
2022/11/05 05:00:56;;;;;;;141.87;42.73;;;;;;;;;;4968635;28;20061;-63
2022/11/05 05:03:40;;;;;;;132.10;44.37;;;;;;;;;;4974412;28;20103;-62
2022/11/05 05:06:23;;;;;;;134.17;44.23;;;;;;;;;;4985740;28;20034;-62
2022/11/05 05:09:07;;;;;;;111.83;42.50;;;;;;;;;;4971543;28;20031;-62
2022/11/05 05:11:51;;;;;;;134.53;45.73;;;;;;;;;;4978974;28;20490;-63
2022/11/05 05:14:35;;;;;;;127.13;44.63;;;;;;;;;;5021393;28;20104;-62
2022/11/05 05:17:19;;;;;;;143.10;46.43;;;;;;;;;;4980594;28;20132;-63
2022/11/05 05:23:05;;;;;;;147.13;45.87;;;;;;;;;;4971555;28;20437;-62
2022/11/05 05:25:49;;;;;;;131.73;43.83;;;;;;;;;;4956714;28;20053;-63
2022/11/05 05:28:33;;;;;;;128.03;43.47;;;;;;;;;;4971850;28;20027;-62
2022/11/05 05:31:17;;;;;;;145.57;45.60;;;;;;;;;;4959311;28;20105;-62
2022/11/05 05:34:01;;;;;;;126.90;44.70;;;;;;;;;;4971122;28;20030;-62
2022/11/05 05:36:44;;;;;;;133.40;43.73;;;;;;;;;;4970991;28;20027;-63
2022/11/05 05:39:28;;;;;;;134.07;41.50;;;;;;;;;;4971260;28;20471;-62
2022/11/05 05:42:12;;;;;;;130.93;44.30;;;;;;;;;;4971822;28;20483;-62
2022/11/05 05:44:56;;;;;;;126.90;42.57;;;;;;;;;;4971008;28;20385;-62
2022/11/05 05:47:40;;;;;;;126.03;43.57;;;;;;;;;;4973614;28;20043;-62
2022/11/05 05:50:23;;;;;;;130.50;43.03;;;;;;;;;;4966207;28;20379;-62
2022/11/05 05:53:07;;;;;;;130.37;43.23;;;;;;;;;;4991146;28;20376;-62
2022/11/05 05:55:51;;;;;;;123.53;38.97;;;;;;;;;;4987030;28;20028;-62
2022/11/05 05:58:35;;;;;;;131.97;40.57;;;;;;;;;;5040384;28;20026;-63
2022/11/05 06:01:19;;;;;;;137.93;41.70;;;;;;;;;;4973076;28;20101;-63
2022/11/05 06:04:02;;;;;;;135.07;39.53;;;;;;;;;;4960716;28;20039;-63
2022/11/05 06:06:47;;;;;;;141.10;44.27;;;;;;;;;;4971160;28;20106;-62
2022/11/05 06:09:30;;;;;;;141.67;42.80;;;;;;;;;;4969649;28;20483;-62
2022/11/05 06:12:14;;;;;;;153.97;45.13;;;;;;;;;;4969628;28;20109;-62
2022/11/05 06:14:58;;;;;;;140.17;44.03;;;;;;;;;;4968045;28;20026;-62
2022/11/05 06:17:42;;;;;;;139.53;41.30;;;;;;;;;;4969524;28;20422;-62
2022/11/05 06:20:25;;;;;;;134.13;40.20;;;;;;;;;;4970917;28;20098;-63
2022/11/05 06:23:09;;;;;;;137.63;42.10;;;;;;;;;;4969099;28;20018;-62
2022/11/05 06:25:53;;;;;;;144.47;41.90;;;;;;;;;;4972500;28;20050;-62
2022/11/05 06:28:37;;;;;;;138.27;41.67;;;;;;;;;;4951898;28;20027;-62
2022/11/05 06:31:21;;;;;;;144.03;41.60;;;;;;;;;;4958671;28;20491;-63
2022/11/05 06:34:04;;;;;;;147.20;42.83;;;;;;;;;;4969304;28;20051;-62
2022/11/05 06:36:48;;;;;;;137.67;39.60;;;;;;;;;;4971061;28;20487;-62
2022/11/05 06:39:32;;;;;;;135.73;40.40;;;;;;;;;;4969563;28;20466;-62
2022/11/05 06:42:16;;;;;;;142.57;40.63;;;;;;;;;;4969358;28;20030;-62
2022/11/05 06:45:00;;;;;;;139.70;42.07;;;;;;;;;;4971219;28;20105;-62
2022/11/05 06:47:43;;;;;;;139.87;39.57;;;;;;;;;;4968834;28;20406;-63
2022/11/05 06:50:27;;;;;;;137.70;39.87;;;;;;;;;;4970077;28;20395;-62
2022/11/05 06:53:11;;;;;;;156.50;43.40;;;;;;;;;;4969410;28;20015;-62
2022/11/05 06:55:54;;;;;;;146.70;42.00;;;;;;;;;;4982194;28;20031;-62
2022/11/05 06:58:38;;;;;;;149.73;42.37;;;;;;;;;;4961404;28;20026;-62
2022/11/05 07:01:22;;;;;;;153.90;41.67;;;;;;;;;;4968334;28;20019;-62
2022/11/05 07:04:06;;;;;;;149.20;42.77;;;;;;;;;;4975353;28;20034;-62
2022/11/05 07:06:49;;;;;;;148.40;40.90;;;;;;;;;;5016989;28;20101;-62
2022/11/05 07:09:37;;;;;;;147.10;42.47;;;;;;;;;;4966937;28;20026;-62
2022/11/05 07:12:21;;;;;;;163.10;44.03;;;;;;;;;;4970616;28;20040;-63
2022/11/05 07:15:04;;;;;;;153.10;43.40;;;;;;;;;;4967977;28;20486;-63
2022/11/05 07:17:48;;;;;;;160.23;42.47;;;;;;;;;;4979773;28;20371;-62
2022/11/05 07:20:32;;;;;;;150.07;42.00;;;;;;;;;;4975896;28;20035;-62
2022/11/05 07:23:16;;;;;;;151.33;41.63;;;;;;;;;;4961106;28;20467;-63
2022/11/05 07:26:00;;;;;;;149.47;42.30;;;;;;;;;;4976882;28;20030;-62
2022/11/05 07:28:44;;;;;;;145.67;42.47;;;;;;;;;;4999477;28;20023;-63
2022/11/05 07:31:28;;;;;;;138.57;39.67;;;;;;;;;;4975816;28;20031;-62
2022/11/05 07:34:11;;;;;;;130.77;37.07;;;;;;;;;;4972479;28;20027;-63
2022/11/05 07:36:55;;;;;;;123.87;35.80;;;;;;;;;;4966239;28;20026;-64
2022/11/05 07:39:39;;;;;;;114.17;33.40;;;;;;;;;;4963918;28;20100;-63
2022/11/05 07:42:23;;;;;;;115.90;35.30;;;;;;;;;;4965916;28;20490;-62
2022/11/05 07:45:07;;;;;;;117.70;34.80;;;;;;;;;;4971078;28;20023;-63
2022/11/05 07:47:51;;;;;;;107.73;31.40;;;;;;;;;;4965014;28;20084;-64
2022/11/05 07:50:34;;;;;;;81.47;21.73;;;;;;;;;;4981269;28;20022;-63
2022/11/05 07:53:19;;;;;;;67.00;22.50;;;;;;;;;;4973557;28;20088;-62
2022/11/05 07:56:03;;;;;;;52.70;18.17;;;;;;;;;;4974214;28;20137;-63
2022/11/05 07:58:47;;;;;;;48.60;17.53;;;;;;;;;;4978994;28;20019;-63
2022/11/05 08:01:31;;;;;;;46.80;17.33;;;;;;;;;;4996178;28;20076;-63
2022/11/05 08:04:14;;;;;;;41.70;17.47;;;;;;;;;;4972700;28;20371;-62
2022/11/05 08:06:58;;;;;;;43.63;16.70;;;;;;;;;;4967760;28;20042;-62
2022/11/05 08:09:42;;;;;;;39.33;16.00;;;;;;;;;;4982523;28;20435;-64
2022/11/05 08:12:26;;;;;;;34.50;14.70;;;;;;;;;;5005845;28;20098;-63
2022/11/05 08:15:09;;;;;;;33.77;14.17;;;;;;;;;;4983758;28;20030;-63
2022/11/05 08:17:53;;;;;;;26.63;14.37;;;;;;;;;;4971269;28;20066;-62
2022/11/05 08:20:37;;;;;;;29.27;12.23;;;;;;;;;;4968448;28;20076;-63
2022/11/05 08:23:21;;;;;;;26.00;12.30;;;;;;;;;;4971055;28;20030;-62
2022/11/05 08:26:05;;;;;;;33.20;14.53;;;;;;;;;;4968405;28;20459;-62
2022/11/05 08:28:49;;;;;;;30.90;14.27;;;;;;;;;;4974784;28;20019;-62
2022/11/05 08:31:35;;;;;;;29.40;14.80;;;;;;;;;;4992988;28;20406;-63
2022/11/05 08:34:19;;;;;;;30.07;14.60;;;;;;;;;;4965904;28;20066;-62
2022/11/05 08:37:03;;;;;;;27.07;12.80;;;;;;;;;;4971570;28;20035;-62
2022/11/05 08:39:47;;;;;;;25.60;12.37;;;;;;;;;;5028900;28;20025;-63
2022/11/05 08:42:31;;;;;;;22.70;12.23;;;;;;;;;;4981542;28;20076;-63
2022/11/05 08:45:15;;;;;;;29.70;12.87;;;;;;;;;;4994928;28;20031;-62
2022/11/05 08:47:59;;;;;;;23.43;13.03;;;;;;;;;;4974011;28;20424;-63
2022/11/05 08:50:43;;;;;;;27.57;14.37;;;;;;;;;;5011303;28;20025;-62
2022/11/05 08:53:26;;;;;;;26.30;13.20;;;;;;;;;;4972195;28;20014;-63
2022/11/05 08:56:10;;;;;;;25.60;12.23;;;;;;;;;;4965952;28;20383;-63
2022/11/05 08:58:54;;;;;;;24.73;12.30;;;;;;;;;;4970959;28;20021;-62
2022/11/05 09:01:37;;;;;;;23.10;11.77;;;;;;;;;;4989401;28;20538;-62
2022/11/05 09:04:21;;;;;;;25.07;11.97;;;;;;;;;;4991843;28;20497;-61
2022/11/05 09:07:05;;;;;;;22.60;11.90;;;;;;;;;;4991549;28;20030;-62
2022/11/05 09:09:49;;;;;;;25.73;11.93;;;;;;;;;;4991869;28;20030;-62
2022/11/05 09:12:33;;;;;;;21.00;11.13;;;;;;;;;;4991836;28;20171;-62
2022/11/05 09:15:16;;;;;;;24.00;11.33;;;;;;;;;;4991200;28;20028;-62
2022/11/05 09:18:01;;;;;;;18.47;10.50;;;;;;;;;;4991357;28;20019;-62
2022/11/05 09:20:45;;;;;;;21.07;10.73;;;;;;;;;;4991627;28;20026;-62
2022/11/05 09:23:29;;;;;;;17.03;9.30;;;;;;;;;;4991589;28;20027;-62
2022/11/05 09:25:54;;;;;;;17.67;9.77;;;;;;;;;;4991289;28;20030;-62
2022/11/05 09:28:21;;;;;;;16.00;8.63;;;;;;;;;;4991502;28;20425;-62
2022/11/05 09:30:47;;;;;;;13.63;7.90;;;;;;;;;;4991223;28;20537;-63
2022/11/05 09:33:13;;;;;;;15.33;8.03;;;;;;;;;;4991048;28;20080;-62
2022/11/05 09:35:38;;;;;;;13.57;6.80;;;;;;;;;;4991226;28;20072;-62
2022/11/05 09:38:04;;;;;;;12.73;6.90;;;;;;;;;;4991267;28;20421;-62
2022/11/05 09:40:31;;;;;;;12.00;7.00;;;;;;;;;;4991288;28;20026;-62
2022/11/05 09:42:56;;;;;;;11.60;6.50;;;;;;;;;;4990381;28;20022;-62
2022/11/05 09:45:22;;;;;;;10.50;6.70;;;;;;;;;;4988665;28;20060;-62
2022/11/05 09:47:49;;;;;;;11.27;6.73;;;;;;;;;;4991010;28;20493;-62
2022/11/05 09:50:19;;;;;;;14.30;7.20;;;;;;;;;;4989093;28;20488;-63
2022/11/05 09:52:44;;;;;;;15.00;7.13;;;;;;;;;;5030060;28;20132;-63
2022/11/05 09:55:22;;;;;;;11.97;6.77;;;;;;;;;;4971266;28;20113;-62
2022/11/05 09:57:55;;;;;;;10.63;6.50;;;;;;;;;;4969471;28;20068;-62
2022/11/05 10:00:21;;;;;;;14.53;6.20;;;;;;;;;;4967606;28;20027;-62
2022/11/05 10:02:48;;;;;;;12.07;6.90;;;;;;;;;;4986875;28;20505;-63
2022/11/05 10:05:13;;;;;;;10.57;6.17;;;;;;;;;;4965086;28;20533;-62
2022/11/05 10:07:47;;;;;;;10.30;6.43;;;;;;;;;;4969053;28;20023;-62
2022/11/05 10:10:20;;;;;;;13.97;6.73;;;;;;;;;;4966691;28;20053;-63
2022/11/05 10:12:48;;;;;;;10.90;6.07;;;;;;;;;;4997318;28;20368;-62
2022/11/05 10:15:16;;;;;;;10.30;6.33;;;;;;;;;;4973383;28;20042;-63
2022/11/05 10:17:45;;;;;;;13.80;6.50;;;;;;;;;;4990836;28;20054;-63
2022/11/05 10:20:17;;;;;;;12.83;6.30;;;;;;;;;;5000153;28;20511;-63
2022/11/05 10:22:43;;;;;;;12.47;6.00;;;;;;;;;;4976196;28;20096;-62
2022/11/05 10:25:18;;;;;;;10.73;6.80;;;;;;;;;;4985625;28;20113;-63
2022/11/05 10:27:48;;;;;;;11.57;5.67;;;;;;;;;;4966235;28;20038;-62
2022/11/05 10:30:13;;;;;;;9.17;6.07;;;;;;;;;;4995458;28;20138;-63
2022/11/05 10:32:39;;;;;;;13.10;6.17;;;;;;;;;;4967153;28;20134;-62
2022/11/05 10:35:06;;;;;;;9.70;5.53;;;;;;;;;;4969049;28;20014;-62
2022/11/05 10:37:32;;;;;;;10.27;5.83;;;;;;;;;;4977990;28;20031;-63
2022/11/05 10:39:57;;;;;;;11.40;5.87;;;;;;;;;;4982648;28;20037;-62
2022/11/05 10:42:29;;;;;;;12.13;6.43;;;;;;;;;;5005129;28;20025;-63
2022/11/05 10:45:12;;;;;;;14.68;5.57;;;;;;;;;;5010530;28;20039;-63
2022/11/05 10:47:51;;;;;;;9.40;5.57;;;;;;;;;;4986202;28;20056;-63
2022/11/05 10:50:18;;;;;;;10.77;5.63;;;;;;;;;;4978991;28;20031;-62
2022/11/05 10:52:58;;;;;;;11.97;5.70;;;;;;;;;;4979975;28;20069;-62
2022/11/05 10:55:26;;;;;;;8.60;5.60;;;;;;;;;;5013613;28;20553;-62
2022/11/05 10:57:51;;;;;;;7.43;4.40;;;;;;;;;;4980675;28;20023;-62
2022/11/05 11:00:17;;;;;;;13.83;5.63;;;;;;;;;;4984313;28;20037;-62
2022/11/05 11:02:45;;;;;;;10.87;5.70;;;;;;;;;;4993563;28;20061;-64
2022/11/05 11:05:17;;;;;;;9.17;5.40;;;;;;;;;;4985416;28;20028;-62
2022/11/05 11:07:42;;;;;;;9.03;4.57;;;;;;;;;;4981565;28;20076;-63
2022/11/05 11:10:17;;;;;;;11.60;5.80;;;;;;;;;;4963854;28;20390;-62
2022/11/05 11:12:42;;;;;;;10.50;5.50;;;;;;;;;;4969459;28;20042;-62
2022/11/05 11:15:11;;;;;;;10.00;5.73;;;;;;;;;;5001222;28;20043;-62
2022/11/05 11:17:36;;;;;;;10.23;5.63;;;;;;;;;;4993531;28;20035;-62
2022/11/05 11:20:40;;;;;;;10.83;5.60;;;;;;;;;;5001791;28;20034;-62
2022/11/05 11:23:15;;;;;;;10.57;5.47;;;;;;;;;;4945240;28;20019;-62
2022/11/05 11:25:47;;;;;;;10.27;5.20;;;;;;;;;;4943980;28;20455;-62
2022/11/05 11:28:35;;;;;;;10.27;5.63;;;;;;;;;;4946384;28;20546;-62
2022/11/05 11:31:03;;;;;;;9.33;4.60;;;;;;;;;;4950403;28;20607;-62
2022/11/05 11:33:29;;;;;;;9.47;4.40;;;;;;;;;;4938660;29;20035;-63
2022/11/05 11:35:55;;;;;;;11.53;4.10;;;;;;;;;;4944221;28;20050;-62
2022/11/05 11:38:21;;;;;;;7.83;3.80;;;;;;;;;;4946025;28;20052;-62
2022/11/05 11:40:46;;;;;;;9.87;4.27;;;;;;;;;;4942676;28;20435;-62
2022/11/05 11:43:42;;;;;;;8.17;3.87;;;;;;;;;;4945358;28;20039;-62
2022/11/05 11:46:18;;;;;;;9.03;3.73;;;;;;;;;;4932546;29;20062;-62
2022/11/05 11:48:46;;;;;;;7.30;3.87;;;;;;;;;;4950191;28;20031;-62
2022/11/05 11:51:33;;;;;;;10.10;4.13;;;;;;;;;;4948353;28;20035;-63
2022/11/05 11:53:58;;;;;;;7.63;3.83;;;;;;;;;;4960088;28;20049;-62
2022/11/05 11:56:23;;;;;;;8.03;4.17;;;;;;;;;;4969601;28;20026;-62
2022/11/05 11:58:50;;;;;;;12.17;4.67;;;;;;;;;;4982787;28;20020;-62
2022/11/05 12:01:15;;;;;;;7.70;4.23;;;;;;;;;;5033692;28;20021;-63
2022/11/05 12:03:49;;;;;;;7.87;4.13;;;;;;;;;;4991365;28;20437;-62
2022/11/05 12:06:32;;;;;;;7.67;4.10;;;;;;;;;;5042756;28;20017;-62
2022/11/05 12:09:01;;;;;;;12.80;4.30;;;;;;;;;;5051366;28;20017;-62
2022/11/05 12:11:49;;;;;;;8.80;4.00;;;;;;;;;;5051525;28;20108;-63
2022/11/05 12:14:31;;;;;;;8.83;3.77;;;;;;;;;;5051390;28;20017;-62
2022/11/05 12:16:59;;;;;;;7.73;4.13;;;;;;;;;;5051111;28;20465;-63
2022/11/05 12:19:38;;;;;;;9.37;4.00;;;;;;;;;;5051148;28;20057;-62
2022/11/05 12:22:06;;;;;;;6.30;3.63;;;;;;;;;;5051404;28;20469;-63
2022/11/05 12:24:31;;;;;;;9.03;4.30;;;;;;;;;;5051039;28;20385;-62
2022/11/05 12:27:06;;;;;;;8.17;3.53;;;;;;;;;;5050983;28;20023;-62
2022/11/05 12:29:37;;;;;;;8.37;3.80;;;;;;;;;;5053706;28;20071;-62
2022/11/05 12:32:02;;;;;;;8.10;3.42;;;;;;;;;;5026806;28;20114;-62
2022/11/05 12:34:27;;;;;;;7.13;3.80;;;;;;;;;;4972479;28;20046;-62
2022/11/05 12:37:00;;;;;;;8.80;3.97;;;;;;;;;;4972289;28;20034;-62
2022/11/05 12:39:26;;;;;;;7.43;3.50;;;;;;;;;;4972884;28;20152;-63
2022/11/05 12:41:51;;;;;;;6.97;3.43;;;;;;;;;;4972883;28;20503;-63
2022/11/05 12:44:34;;;;;;;8.67;3.60;;;;;;;;;;4974856;28;20109;-62
2022/11/05 12:47:05;;;;;;;10.53;3.73;;;;;;;;;;4972476;28;20231;-62
2022/11/05 12:49:31;;;;;;;7.45;3.78;;;;;;;;;;4969465;28;20467;-62
2022/11/05 12:51:56;;;;;;;8.87;3.57;;;;;;;;;;4971507;28;20023;-62
2022/11/05 12:54:28;;;;;;;8.43;3.40;;;;;;;;;;4969532;28;20058;-62
2022/11/05 12:56:59;;;;;;;10.10;3.50;;;;;;;;;;4970422;28;20089;-63
2022/11/05 12:59:30;;;;;;;7.37;3.47;;;;;;;;;;4968686;28;20034;-63
2022/11/05 13:01:59;;;;;;;7.45;4.18;;;;;;;;;;4969354;28;20750;-63
2022/11/05 13:04:42;;;;;;;8.67;3.50;;;;;;;;;;4968506;28;20033;-62
2022/11/05 13:07:10;;;;;;;6.30;3.40;;;;;;;;;;4968134;28;21946;-63
2022/11/05 13:09:44;;;;;;;6.23;3.50;;;;;;;;;;4965723;28;20482;-62
2022/11/05 13:12:11;;;;;;;9.90;3.77;;;;;;;;;;4966441;28;20027;-62
2022/11/05 13:14:40;;;;;;;11.27;3.90;;;;;;;;;;4968990;28;20100;-62
2022/11/05 13:17:09;;;;;;;8.77;3.70;;;;;;;;;;4967902;28;20034;-62
2022/11/05 13:19:55;;;;;;;10.83;4.30;;;;;;;;;;4970338;28;20023;-62
2022/11/05 13:22:26;;;;;;;8.63;3.80;;;;;;;;;;4967293;28;20553;-62
2022/11/05 13:24:54;;;;;;;11.30;4.20;;;;;;;;;;4967403;28;20058;-62
2022/11/05 13:27:19;;;;;;;8.70;4.00;;;;;;;;;;4972119;28;20035;-62
2022/11/05 13:29:49;;;;;;;9.10;4.27;;;;;;;;;;4971736;28;20029;-62
2022/11/05 13:32:30;;;;;;;8.43;4.00;;;;;;;;;;4977404;28;20605;-62
2022/11/05 13:34:55;;;;;;;9.37;4.50;;;;;;;;;;4965879;28;20422;-63
2022/11/05 13:40:17;;;;;;;9.50;4.30;;;;;;;;;;4968270;28;20436;-63
2022/11/05 13:42:55;;;;;;;9.67;4.03;;;;;;;;;;4973816;28;20445;-63
2022/11/05 13:45:20;;;;;;;10.63;3.93;;;;;;;;;;4973639;28;20139;-63
2022/11/05 13:47:54;;;;;;;11.80;4.47;;;;;;;;;;4971362;28;20486;-63
2022/11/05 13:50:25;;;;;;;7.93;3.87;;;;;;;;;;4971752;28;20056;-63
2022/11/05 13:52:59;;;;;;;13.48;4.68;;;;;;;;;;4971041;28;20068;-62
2022/11/05 13:55:36;;;;;;;10.03;4.20;;;;;;;;;;4970895;28;20051;-62
2022/11/05 13:58:20;;;;;;;9.37;4.13;;;;;;;;;;4973652;28;20125;-62
2022/11/05 14:00:56;;;;;;;9.13;3.90;;;;;;;;;;4971426;28;20474;-62
2022/11/05 14:03:22;;;;;;;8.53;4.00;;;;;;;;;;4971084;28;20072;-62
2022/11/05 14:05:58;;;;;;;8.23;3.83;;;;;;;;;;4970815;28;20134;-61
2022/11/05 14:08:26;;;;;;;7.83;3.30;;;;;;;;;;4970813;28;20087;-62
2022/11/05 14:11:11;;;;;;;10.63;3.73;;;;;;;;;;4970964;28;20075;-63
2022/11/05 14:13:38;;;;;;;9.40;3.77;;;;;;;;;;4974121;28;20039;-62
2022/11/05 14:16:07;;;;;;;10.13;3.73;;;;;;;;;;4973404;28;20049;-63
2022/11/05 14:18:34;;;;;;;9.80;3.93;;;;;;;;;;4954995;28;20468;-62
2022/11/05 14:21:01;;;;;;;12.57;4.07;;;;;;;;;;4986492;28;20024;-62
2022/11/05 14:23:35;;;;;;;10.10;4.00;;;;;;;;;;5009105;28;20057;-62
2022/11/05 14:26:14;;;;;;;9.70;3.80;;;;;;;;;;4986302;28;20058;-62
2022/11/05 14:31:17;;;;;;;7.97;3.40;;;;;;;;;;5423854;22;20135;-63
2022/11/05 14:33:53;;;;;;;9.33;3.67;;;;;;;;;;5074607;28;20581;-64
2022/11/05 14:36:25;;;;;;;8.07;3.50;;;;;;;;;;5066183;28;20063;-62
2022/11/05 14:38:52;;;;;;;8.97;3.20;;;;;;;;;;5067803;28;20016;-63
2022/11/05 14:41:19;;;;;;;8.77;3.23;;;;;;;;;;5072905;28;20049;-62
2022/11/05 14:43:55;;;;;;;9.53;3.47;;;;;;;;;;5065053;28;20442;-63
2022/11/05 14:46:20;;;;;;;9.00;3.20;;;;;;;;;;5065239;28;20523;-62
2022/11/05 14:48:48;;;;;;;7.97;3.40;;;;;;;;;;5067735;28;20487;-63
2022/11/05 14:51:24;;;;;;;9.33;3.40;;;;;;;;;;5063458;28;20031;-63
2022/11/05 14:53:56;;;;;;;8.83;3.70;;;;;;;;;;5067721;28;20028;-63
2022/11/05 14:56:21;;;;;;;9.15;3.85;;;;;;;;;;5067590;28;20067;-62
2022/11/05 14:58:46;;;;;;;9.93;3.40;;;;;;;;;;5068019;28;20436;-63
2022/11/05 15:01:12;;;;;;;6.93;3.53;;;;;;;;;;5065551;28;20020;-63
2022/11/05 15:03:40;;;;;;;11.30;3.60;;;;;;;;;;5066663;28;20031;-63
2022/11/05 15:06:23;;;;;;;7.77;3.40;;;;;;;;;;5065709;28;20021;-64
2022/11/05 15:08:49;;;;;;;9.30;3.60;;;;;;;;;;5057870;28;20055;-62
2022/11/05 15:11:19;;;;;;;8.03;3.50;;;;;;;;;;5066454;28;20094;-63
2022/11/05 15:13:44;;;;;;;12.57;3.37;;;;;;;;;;5064974;28;20387;-62
2022/11/05 15:16:15;;;;;;;9.83;3.33;;;;;;;;;;5066252;28;20029;-63
2022/11/05 15:18:43;;;;;;;7.17;3.60;;;;;;;;;;5065967;28;20457;-63
2022/11/05 15:21:12;;;;;;;10.83;3.73;;;;;;;;;;5065520;28;20028;-62
2022/11/05 15:23:39;;;;;;;8.63;3.50;;;;;;;;;;5070851;28;20074;-62
2022/11/05 15:26:11;;;;;;;8.67;3.40;;;;;;;;;;5066490;28;20181;-63
2022/11/05 15:28:36;;;;;;;;;;;;;;;;;;5067109;28;20143;-63
2022/11/05 15:31:03;;;;;;;8.98;3.80;;;;;;;;;;5049463;28;19912;-62
2022/11/05 15:33:29;;;;;;;8.23;3.90;;;;;;;;;;5045620;28;20120;-63
2022/11/05 15:35:54;;;;;;;10.50;4.27;;;;;;;;;;5044193;28;20460;-62
2022/11/05 15:38:25;;;;;;;10.93;4.50;;;;;;;;;;5050106;28;20020;-63
2022/11/05 15:40:58;;;;;;;7.72;3.95;;;;;;;;;;5036542;28;20021;-62
2022/11/05 15:43:23;;;;;;;9.83;4.70;;;;;;;;;;5034901;28;20038;-62
2022/11/05 15:46:12;;;;;;;10.00;4.50;;;;;;;;;;5041969;28;20048;-63
2022/11/05 15:48:38;;;;;;;8.67;4.37;;;;;;;;;;5058015;28;20111;-62
2022/11/05 15:51:03;;;;;;;9.00;4.63;;;;;;;;;;5042139;28;20559;-62
2022/11/05 15:53:31;;;;;;;11.97;5.17;;;;;;;;;;5045018;28;20037;-63
2022/11/05 15:56:00;;;;;;;11.03;4.50;;;;;;;;;;5040354;28;20036;-63
2022/11/05 15:58:26;;;;;;;10.03;4.83;;;;;;;;;;5033630;28;20025;-63
2022/11/05 16:00:51;;;;;;;10.40;5.70;;;;;;;;;;5045183;28;20545;-62
2022/11/05 16:03:30;;;;;;;11.57;5.30;;;;;;;;;;5067713;28;20028;-62
2022/11/05 16:05:56;;;;;;;13.00;5.63;;;;;;;;;;5068941;28;20406;-63
2022/11/05 16:08:26;;;;;;;13.33;5.30;;;;;;;;;;5047227;28;20029;-63